Time;durP1;ratioP1;P1;durP2;ratioP2;P2;SDS_P1;SDS_P2;PMS_P1;PMS_P2;Temp;Humidity;BMP_temperature;BMP_pressure;BME280_temperature;BME280_humidity;BME280_pressure;Samples;Min_cycle;Max_cycle;Signal;HPM_P1;HPM_P2
2022/12/19 00:01:31;;;;;;;26.07;11.38;;;;;;;-7.14;86.81;102565.13;1728533;82;25601;-48
2022/12/19 00:04:01;;;;;;;29.60;13.38;;;;;;;-7.14;86.94;102564.31;1728428;83;25461;-51
2022/12/19 00:06:30;;;;;;;29.57;12.58;;;;;;;-7.16;86.97;102563.62;1728496;83;25451;-49
2022/12/19 00:09:00;;;;;;;25.60;11.53;;;;;;;-7.17;87.00;102562.80;1728668;83;27382;-49
2022/12/19 00:11:29;;;;;;;29.05;11.68;;;;;;;-7.17;87.02;102563.26;1728581;83;32915;-50
2022/12/19 00:13:57;;;;;;;26.82;12.45;;;;;;;-7.16;87.14;102559.18;1728692;83;25555;-49
2022/12/19 00:16:28;;;;;;;27.10;12.80;;;;;;;-7.14;87.08;102557.73;1728503;83;25613;-52
2022/12/19 00:19:01;;;;;;;28.98;12.25;;;;;;;-7.12;87.18;102561.55;1728602;83;25643;-49
2022/12/19 00:21:31;;;;;;;28.65;12.10;;;;;;;-7.11;87.10;102567.16;1728573;83;27379;-49
2022/12/19 00:23:58;;;;;;;31.17;11.63;;;;;;;-7.15;86.99;102562.17;1728425;83;25611;-49
2022/12/19 00:26:35;;;;;;;23.90;11.05;;;;;;;-7.13;87.03;102560.72;1728503;83;25460;-49
2022/12/19 00:29:08;;;;;;;30.15;12.33;;;;;;;-7.14;87.10;102567.77;1728246;83;26158;-51
2022/12/19 00:31:36;;;;;;;29.40;12.28;;;;;;;-7.14;87.00;102569.08;1728571;83;25568;-49
2022/12/19 00:34:03;;;;;;;28.23;12.07;;;;;;;-7.14;86.97;102565.13;1728549;82;26824;-49
2022/12/19 00:36:34;;;;;;;28.40;11.60;;;;;;;-7.15;86.90;102563.48;1728454;83;25462;-49
2022/12/19 00:39:04;;;;;;;29.00;11.75;;;;;;;-7.14;86.92;102574.83;1728541;83;25383;-49
2022/12/19 00:41:34;;;;;;;28.27;12.95;;;;;;;-7.16;86.88;102572.33;1728515;83;25617;-51
2022/12/19 00:44:08;;;;;;;30.90;13.18;;;;;;;-7.16;86.92;102561.81;1728572;82;25453;-50
2022/12/19 00:46:36;;;;;;;28.02;12.88;;;;;;;-7.15;86.95;102559.55;1728578;83;27300;-51
2022/12/19 00:49:05;;;;;;;28.25;11.68;;;;;;;-7.15;86.84;102561.31;1728689;83;25535;-50
2022/12/19 00:51:35;;;;;;;31.35;11.93;;;;;;;-7.16;86.84;102566.25;1728469;83;25439;-50
2022/12/19 00:54:03;;;;;;;23.52;10.32;;;;;;;-7.17;86.69;102588.25;1728460;83;25603;-51
2022/12/19 00:56:34;;;;;;;24.77;11.60;;;;;;;-7.22;86.56;102565.00;1734534;82;25429;-53
2022/12/19 00:59:00;;;;;;;24.65;10.65;;;;;;;-7.24;86.63;102573.48;1736125;82;27316;-50
2022/12/19 01:01:32;;;;;;;23.70;9.28;;;;;;;-7.25;86.67;102566.58;1736021;82;25433;-49
2022/12/19 01:04:03;;;;;;;28.95;12.43;;;;;;;-7.27;86.62;102562.41;1736130;82;25469;-49
2022/12/19 01:06:31;;;;;;;27.50;11.48;;;;;;;-7.29;86.70;102569.12;1736099;82;25451;-49
2022/12/19 01:08:58;;;;;;;28.02;11.15;;;;;;;-7.29;86.68;102565.66;1736127;82;25473;-51
2022/12/19 01:14:12;;;;;;;23.02;11.33;;;;;;;-7.28;86.79;102567.34;1736071;82;25547;-49
2022/12/19 01:16:38;;;;;;;28.62;11.60;;;;;;;-7.29;86.73;102562.55;1736243;82;25387;-49
2022/12/19 01:19:06;;;;;;;22.52;10.75;;;;;;;-7.28;86.70;102569.48;1736012;82;27594;-49
2022/12/19 01:21:36;;;;;;;24.65;10.78;;;;;;;-7.28;86.62;102562.08;1735780;82;25426;-50
2022/12/19 01:24:05;;;;;;;27.15;10.70;;;;;;;-7.29;86.62;102549.89;1736192;82;27515;-50
2022/12/19 01:26:32;;;;;;;25.20;10.63;;;;;;;-7.29;86.63;102555.14;1736090;82;25623;-50
2022/12/19 01:28:58;;;;;;;22.42;9.53;;;;;;;-7.29;86.63;102553.83;1736069;82;25385;-49
2022/12/19 01:31:25;;;;;;;24.95;11.20;;;;;;;-7.33;86.53;102543.58;1736007;82;25649;-51
2022/12/19 01:33:51;;;;;;;29.57;12.53;;;;;;;-7.33;86.62;102548.84;1709036;82;25589;-49
2022/12/19 01:36:17;;;;;;;24.75;10.72;;;;;;;-7.32;86.69;102545.71;1736045;82;27308;-50
2022/12/19 01:38:44;;;;;;;28.10;12.80;;;;;;;-7.32;86.67;102539.14;1735936;82;25536;-49
2022/12/19 01:41:11;;;;;;;27.52;12.00;;;;;;;-7.29;86.77;102532.30;1736044;82;25553;-50
2022/12/19 01:44:04;;;;;;;23.25;10.78;;;;;;;-7.29;86.67;102527.53;1736000;82;25678;-49
2022/12/19 01:46:41;;;;;;;22.25;11.45;;;;;;;-7.31;86.65;102525.03;1735122;82;25639;-51
2022/12/19 01:49:15;;;;;;;29.15;11.08;;;;;;;-7.29;86.65;102525.72;1735461;82;27338;-49
2022/12/19 01:51:46;;;;;;;26.02;11.73;;;;;;;-7.32;86.59;102519.41;1734002;82;27180;-49
2022/12/19 01:54:20;;;;;;;25.48;11.63;;;;;;;-7.35;86.54;102529.73;1735844;82;25561;-50
2022/12/19 01:56:52;;;;;;;26.27;12.07;;;;;;;-7.38;86.52;102530.00;1735803;82;27541;-49
2022/12/19 01:59:25;;;;;;;27.15;11.18;;;;;;;-7.38;86.63;102536.58;1736126;82;25432;-52
2022/12/19 02:01:57;;;;;;;26.65;11.43;;;;;;;-7.41;86.59;102531.58;1733850;82;27940;-51
2022/12/19 02:04:27;;;;;;;27.62;11.48;;;;;;;-7.40;86.52;102532.44;1735862;82;25394;-49
2022/12/19 02:06:56;;;;;;;27.15;11.50;;;;;;;-7.42;86.54;102533.88;1736056;82;25542;-49
2022/12/19 02:09:25;;;;;;;24.85;11.00;;;;;;;-7.43;86.58;102529.58;1709002;82;25548;-50
2022/12/19 02:11:53;;;;;;;20.85;11.00;;;;;;;-7.44;86.63;102523.98;1736003;82;25363;-50
2022/12/19 02:14:21;;;;;;;27.15;11.73;;;;;;;-7.44;86.56;102527.93;1735985;82;27297;-51
2022/12/19 02:17:15;;;;;;;32.20;12.55;;;;;;;-7.44;86.60;102523.98;1735953;82;25630;-50
2022/12/19 02:20:06;;;;;;;24.95;12.33;;;;;;;-7.45;86.56;102516.23;1735846;82;25514;-50
2022/12/19 02:22:49;;;;;;;27.80;12.40;;;;;;;-7.46;86.58;102511.92;1735269;82;25548;-51
2022/12/19 02:25:48;;;;;;;26.68;11.70;;;;;;;-7.48;86.62;102517.31;1734492;82;25704;-50
2022/12/19 02:28:45;;;;;;;29.30;12.78;;;;;;;-7.51;86.58;102517.13;1736148;82;29550;-50
2022/12/19 02:31:23;;;;;;;26.23;10.88;;;;;;;-7.49;86.71;102525.34;1735890;82;25700;-49
2022/12/19 02:34:17;;;;;;;30.62;12.65;;;;;;;-7.52;86.63;102519.39;1735249;82;25620;-51
2022/12/19 02:36:56;;;;;;;31.10;13.00;;;;;;;-7.51;86.74;102517.13;1708492;83;25753;-51
2022/12/19 02:39:49;;;;;;;30.62;12.68;;;;;;;-7.48;86.93;102518.63;1708531;84;25841;-49
2022/12/19 02:42:24;;;;;;;35.17;16.00;;;;;;;-7.52;86.57;102531.71;1693925;84;27514;-49
2022/12/19 02:44:53;;;;;;;37.55;14.35;;;;;;;-7.58;86.38;102526.48;1692940;84;25774;-49
2022/12/19 02:47:22;;;;;;;33.28;14.90;;;;;;;-7.63;86.30;102508.15;1694054;84;25492;-49
2022/12/19 02:49:49;;;;;;;38.98;15.15;;;;;;;-7.65;86.33;102516.17;1694009;84;25711;-50
2022/12/19 02:52:24;;;;;;;38.98;14.73;;;;;;;-7.67;86.29;102502.34;1694050;84;25466;-49
2022/12/19 02:55:02;;;;;;;35.78;15.20;;;;;;;-7.68;86.45;102511.66;1670703;84;27458;-51
2022/12/19 02:57:53;;;;;;;35.95;16.48;;;;;;;-7.71;86.45;102508.34;1660437;84;25484;-51
2022/12/19 03:00:23;;;;;;;34.67;14.05;;;;;;;-7.73;86.47;102504.17;1654323;85;25673;-52
2022/12/19 03:03:14;;;;;;;31.25;14.90;;;;;;;-7.75;86.52;102507.42;1669670;85;25673;-50
2022/12/19 03:05:56;;;;;;;40.45;15.45;;;;;;;-7.77;86.47;102508.05;1663969;86;25505;-50
2022/12/19 03:08:33;;;;;;;42.88;15.30;;;;;;;-7.80;86.48;102510.44;1667274;86;27296;-49
2022/12/19 03:11:07;;;;;;;39.00;16.23;;;;;;;-7.80;86.41;102504.36;1585886;90;25943;-49
2022/12/19 03:13:55;;;;;;;48.48;17.98;;;;;;;-7.83;86.37;102506.79;1588006;89;25692;-49
2022/12/19 03:16:23;;;;;;;46.25;17.67;;;;;;;-7.87;86.27;102501.92;1589221;90;25517;-50
2022/12/19 03:18:53;;;;;;;48.98;16.80;;;;;;;-7.87;86.18;102496.67;1587850;89;25506;-50
2022/12/19 03:21:37;;;;;;;34.50;15.32;;;;;;;-7.91;86.10;102482.97;1582466;90;27098;-49
2022/12/19 03:24:07;;;;;;;43.00;16.30;;;;;;;-7.95;85.84;102488.13;1582416;90;25801;-49
2022/12/19 03:26:39;;;;;;;42.08;16.55;;;;;;;-8.00;85.69;102492.48;1582507;90;25541;-51
2022/12/19 03:29:10;;;;;;;36.17;14.98;;;;;;;-8.02;85.77;102496.19;1582083;90;25864;-50
2022/12/19 03:31:39;;;;;;;37.58;15.78;;;;;;;-8.07;85.64;102489.55;1582597;90;25701;-52
2022/12/19 03:34:14;;;;;;;37.88;15.65;;;;;;;-8.10;85.44;102488.98;1582615;90;27364;-51
2022/12/19 03:36:46;;;;;;;40.17;15.35;;;;;;;-8.15;85.34;102485.92;1581271;90;25460;-49
2022/12/19 03:39:16;;;;;;;37.00;15.95;;;;;;;-8.17;85.25;102493.08;1582490;90;25466;-50
2022/12/19 03:44:34;;;;;;;34.38;14.58;;;;;;;-8.30;85.30;102479.69;1582621;90;25668;-52
2022/12/19 03:47:08;;;;;;;40.15;15.58;;;;;;;-8.34;85.31;102479.61;1582595;90;27352;-50
2022/12/19 03:49:35;;;;;;;40.70;17.25;;;;;;;-8.37;85.29;102476.42;1694314;84;25440;-49
2022/12/19 03:52:19;;;;;;;39.05;16.07;;;;;;;-8.42;85.22;102476.80;1694391;84;25614;-49
2022/12/19 03:55:01;;;;;;;34.48;15.20;;;;;;;-8.46;85.12;102479.38;1694387;84;25539;-51
2022/12/19 03:57:36;;;;;;;32.40;15.38;;;;;;;-8.51;84.98;102482.84;1730505;82;25622;-50
2022/12/19 04:00:09;;;;;;;39.15;15.40;;;;;;;-8.58;84.73;102479.93;1736139;82;27278;-50
2022/12/19 04:02:41;;;;;;;39.48;16.77;;;;;;;-8.62;84.82;102477.68;1736127;82;25598;-49
2022/12/19 04:05:20;;;;;;;38.28;14.95;;;;;;;-8.69;84.78;102469.00;1736179;82;25436;-49
2022/12/19 04:07:51;;;;;;;35.75;15.80;;;;;;;-8.74;84.50;102471.66;1734811;82;25555;-50
2022/12/19 04:10:22;;;;;;;30.90;13.55;;;;;;;-8.81;84.49;102463.47;1736169;82;25633;-51
2022/12/19 04:12:53;;;;;;;34.27;14.33;;;;;;;-8.86;84.42;102460.40;1736181;82;27318;-51
2022/12/19 04:15:25;;;;;;;38.30;15.55;;;;;;;-8.93;84.42;102455.31;1734813;82;25447;-49
2022/12/19 04:17:56;;;;;;;35.38;14.20;;;;;;;-8.97;84.42;102458.67;1735316;82;25551;-49
2022/12/19 04:20:29;;;;;;;35.40;15.30;;;;;;;-9.03;84.77;102445.56;1736131;82;25555;-50
2022/12/19 04:23:01;;;;;;;35.10;15.03;;;;;;;-9.08;84.64;102448.23;1735829;82;25455;-50
2022/12/19 04:25:36;;;;;;;36.03;14.33;;;;;;;-9.13;84.80;102452.53;1736128;82;29503;-49
2022/12/19 04:28:11;;;;;;;34.80;14.23;;;;;;;-9.17;84.89;102452.44;1736085;82;25681;-51
2022/12/19 04:30:41;;;;;;;31.40;13.62;;;;;;;-9.21;84.72;102452.32;1736261;82;25519;-49
2022/12/19 04:33:07;;;;;;;;;;;;;;;-9.26;84.61;102440.92;1738633;82;25629;-51
2022/12/19 04:35:35;;;;;;;33.78;15.13;;;;;;;-9.30;84.73;102436.05;1736176;82;25632;-49
2022/12/19 04:38:02;;;;;;;32.93;13.83;;;;;;;-9.35;84.75;102429.04;1736109;82;29555;-50
2022/12/19 04:40:29;;;;;;;34.35;14.07;;;;;;;-9.39;85.07;102422.73;1735980;82;25574;-50
2022/12/19 04:42:55;;;;;;;36.60;14.05;;;;;;;-9.43;85.09;102422.64;1736131;82;25557;-50
2022/12/19 04:45:22;;;;;;;37.78;13.83;;;;;;;-9.43;85.07;102418.71;1736097;82;25388;-52
2022/12/19 04:47:48;;;;;;;37.93;14.63;;;;;;;-9.47;85.00;102417.27;1736125;82;25454;-52
2022/12/19 04:50:15;;;;;;;38.23;15.03;;;;;;;-9.49;85.22;102407.89;1736097;82;29606;-52
2022/12/19 04:52:41;;;;;;;38.67;15.98;;;;;;;-9.51;85.26;102409.33;1735978;82;25623;-50
2022/12/19 04:55:09;;;;;;;36.88;15.35;;;;;;;-9.52;85.41;102405.52;1736051;82;25428;-52
2022/12/19 04:57:35;;;;;;;33.20;13.32;;;;;;;-9.54;85.37;102405.64;1736008;82;25909;-49
2022/12/19 05:00:05;;;;;;;36.65;14.93;;;;;;;-9.55;85.47;102405.30;1736113;82;25416;-49
2022/12/19 05:02:32;;;;;;;40.60;16.00;;;;;;;-9.60;85.45;102410.91;1736124;82;28251;-50
2022/12/19 05:04:59;;;;;;;38.13;14.95;;;;;;;-9.61;85.67;102398.75;1736013;82;25590;-50
2022/12/19 05:07:25;;;;;;;37.08;14.95;;;;;;;-9.61;85.65;102405.30;1736038;82;25548;-50
2022/12/19 05:09:51;;;;;;;34.58;14.07;;;;;;;-9.64;85.63;102394.23;1736043;82;25410;-50
2022/12/19 05:12:17;;;;;;;36.13;14.68;;;;;;;-9.67;85.51;102386.63;1708992;82;25564;-49
2022/12/19 05:14:43;;;;;;;43.40;16.70;;;;;;;-9.70;85.65;102390.34;1736077;82;27338;-49
2022/12/19 05:17:09;;;;;;;35.92;14.65;;;;;;;-9.73;85.66;102403.67;1708973;82;25886;-49
2022/12/19 05:19:36;;;;;;;40.03;15.38;;;;;;;-9.76;85.77;102388.20;1735778;82;25574;-49
2022/12/19 05:22:02;;;;;;;32.30;14.60;;;;;;;-9.79;86.13;102372.27;1736013;82;25385;-49
2022/12/19 05:24:29;;;;;;;40.73;17.27;;;;;;;-9.77;85.91;102382.63;1736135;82;25421;-50
2022/12/19 05:26:56;;;;;;;39.67;15.58;;;;;;;-9.79;85.97;102385.82;1736152;82;27977;-50
2022/12/19 05:29:24;;;;;;;38.30;15.58;;;;;;;-9.80;85.87;102382.37;1735917;82;25424;-49
2022/12/19 05:31:52;;;;;;;41.25;15.63;;;;;;;-9.83;85.96;102389.66;1735999;82;25470;-50
2022/12/19 05:34:18;;;;;;;40.98;16.10;;;;;;;-9.84;86.19;102384.91;1736103;82;25420;-49
2022/12/19 05:36:45;;;;;;;45.65;16.45;;;;;;;-9.84;86.15;102392.77;1736055;82;25570;-50
2022/12/19 05:39:12;;;;;;;42.73;16.02;;;;;;;-9.85;86.09;102386.33;1735697;82;27936;-50
2022/12/19 05:41:38;;;;;;;42.80;16.55;;;;;;;-9.88;86.06;102378.23;1735945;82;25609;-50
2022/12/19 05:44:04;;;;;;;45.40;15.80;;;;;;;-9.87;86.17;102379.09;1736011;82;25591;-49
2022/12/19 05:46:30;;;;;;;41.98;15.72;;;;;;;-9.89;86.18;102377.89;1736022;82;25472;-50
2022/12/19 05:48:56;;;;;;;44.93;16.45;;;;;;;-9.90;85.95;102376.70;1736065;82;25468;-51
2022/12/19 05:51:23;;;;;;;33.02;14.78;;;;;;;-9.92;86.19;102376.00;1736022;82;27901;-50
2022/12/19 05:53:49;;;;;;;42.45;16.40;;;;;;;-9.94;86.17;102372.20;1735940;82;25396;-49
2022/12/19 05:56:21;;;;;;;38.53;17.25;;;;;;;-9.96;86.07;102366.22;1735443;82;25374;-50
2022/12/19 05:58:49;;;;;;;42.10;16.27;;;;;;;-9.99;85.89;102372.55;1730826;82;25533;-49
2022/12/19 06:01:23;;;;;;;38.80;16.00;;;;;;;-10.02;85.81;102370.66;1730861;82;25377;-52
2022/12/19 06:03:51;;;;;;;38.78;15.45;;;;;;;-10.03;85.88;102370.30;1730829;82;27327;-50
2022/12/19 06:06:22;;;;;;;40.35;16.57;;;;;;;-10.04;85.72;102367.34;1730704;82;25545;-49
2022/12/19 06:08:58;;;;;;;37.58;16.42;;;;;;;-10.06;85.79;102357.44;1730853;82;25573;-49
2022/12/19 06:11:26;;;;;;;50.90;19.40;;;;;;;-10.07;85.82;102357.11;1730765;82;26076;-50
2022/12/19 06:13:53;;;;;;;43.38;16.27;;;;;;;-10.09;85.84;102360.33;1730998;82;25555;-49
2022/12/19 06:16:22;;;;;;;43.70;17.48;;;;;;;-10.10;85.91;102348.18;1730774;82;27349;-50
2022/12/19 06:18:50;;;;;;;38.75;15.10;;;;;;;-10.14;85.83;102348.91;1731037;82;25738;-49
2022/12/19 06:21:21;;;;;;;48.83;16.23;;;;;;;-10.15;85.72;102352.47;1731072;82;25204;-49
2022/12/19 06:23:49;;;;;;;43.40;17.00;;;;;;;-10.17;85.69;102353.07;1730754;82;25514;-52
2022/12/19 06:26:19;;;;;;;52.93;18.17;;;;;;;-10.18;85.70;102353.56;1730824;82;25548;-49
2022/12/19 06:28:50;;;;;;;43.75;17.32;;;;;;;-10.21;85.70;102350.36;1730853;82;27317;-50
2022/12/19 06:31:20;;;;;;;38.23;16.52;;;;;;;-10.23;85.73;102349.16;1730736;82;25609;-48
2022/12/19 06:33:47;;;;;;;43.95;17.80;;;;;;;-10.24;85.67;102356.65;1730794;82;25475;-49
2022/12/19 06:36:22;;;;;;;43.30;16.50;;;;;;;-10.26;85.70;102358.56;1730703;82;25441;-49
2022/12/19 06:38:50;;;;;;;43.75;17.05;;;;;;;-10.29;85.62;102361.41;1730837;82;25586;-49
2022/12/19 06:43:50;;;;;;;44.73;17.50;;;;;;;-10.30;85.74;102364.97;1643706;87;25659;-49
2022/12/19 06:46:16;;;;;;;45.92;17.27;;;;;;;-10.32;85.65;102364.30;1643984;87;25634;-51
2022/12/19 06:48:43;;;;;;;48.98;17.10;;;;;;;-10.32;85.72;102369.53;1644033;87;25723;-50
2022/12/19 06:51:09;;;;;;;45.17;17.90;;;;;;;-10.30;85.67;102365.45;1644128;87;26060;-52
2022/12/19 06:53:36;;;;;;;49.30;18.60;;;;;;;-10.34;85.56;102364.91;1644217;87;27530;-50
2022/12/19 06:56:04;;;;;;;47.45;17.45;;;;;;;-10.36;85.64;102372.87;1644229;86;25894;-49
2022/12/19 06:58:30;;;;;;;46.05;18.70;;;;;;;-10.32;85.53;102385.72;1652837;86;25527;-51
2022/12/19 07:00:56;;;;;;;46.00;18.10;;;;;;;-10.29;85.58;102389.37;1653755;86;25462;-50
2022/12/19 07:03:28;;;;;;;49.15;18.07;;;;;;;-10.27;85.59;102388.78;1653923;86;25718;-50
2022/12/19 07:05:55;;;;;;;47.93;19.23;;;;;;;-10.27;85.61;102392.22;1653826;86;27622;-50
2022/12/19 07:08:22;;;;;;;52.60;20.10;;;;;;;-10.23;85.53;102402.81;1653730;86;25679;-50
2022/12/19 07:10:48;;;;;;;48.87;19.40;;;;;;;-10.25;85.49;102394.23;1653790;86;25676;-52
2022/12/19 07:13:15;;;;;;;47.73;19.52;;;;;;;-10.23;85.46;102392.34;1653757;86;25655;-51
2022/12/19 07:15:42;;;;;;;44.77;19.13;;;;;;;-10.21;85.45;102387.00;1653842;86;25638;-49
2022/12/19 07:18:10;;;;;;;47.95;19.50;;;;;;;-10.20;85.49;102376.86;1654013;86;27540;-48
2022/12/19 07:20:39;;;;;;;44.03;20.15;;;;;;;-10.16;85.51;102379.61;1670821;82;25742;-49
2022/12/19 07:23:09;;;;;;;46.53;18.00;;;;;;;-10.15;85.36;102378.64;1741188;82;25439;-49
2022/12/19 07:25:37;;;;;;;51.10;20.08;;;;;;;-10.13;85.38;102383.27;1740326;82;25552;-49
2022/12/19 07:28:06;;;;;;;47.53;18.27;;;;;;;-10.12;85.48;102381.02;1741291;82;25446;-49
2022/12/19 07:30:32;;;;;;;53.30;19.92;;;;;;;-10.07;85.52;102374.12;1741095;82;27341;-50
2022/12/19 07:32:59;;;;;;;59.73;22.27;;;;;;;-10.04;85.51;102366.85;1741009;82;25538;-50
2022/12/19 07:35:25;;;;;;;51.88;18.60;;;;;;;-10.02;85.54;102362.31;1741115;82;25531;-50
2022/12/19 07:37:51;;;;;;;61.53;22.98;;;;;;;-9.98;85.59;102365.52;1741090;82;25430;-50
2022/12/19 07:40:18;;;;;;;54.23;22.42;;;;;;;-9.97;85.40;102370.64;1741133;82;25550;-50
2022/12/19 07:42:45;;;;;;;63.50;21.97;;;;;;;-9.95;85.44;102363.48;1741102;82;27371;-51
2022/12/19 07:45:14;;;;;;;54.77;21.93;;;;;;;-9.89;85.56;102370.04;1741085;82;25395;-54
2022/12/19 07:47:40;;;;;;;55.40;22.65;;;;;;;-9.86;85.56;102376.31;1741105;82;25448;-50
2022/12/19 07:50:09;;;;;;;55.33;21.52;;;;;;;-9.83;85.56;102378.70;1740704;82;26038;-51
2022/12/19 07:52:35;;;;;;;52.95;23.20;;;;;;;-9.77;85.75;102377.39;1741224;82;25564;-50
2022/12/19 07:55:05;;;;;;;52.40;22.35;;;;;;;-9.67;86.21;102381.38;1741082;82;27517;-50
2022/12/19 07:57:31;;;;;;;;;;;;;;;-9.56;86.24;102375.30;1739729;82;25514;-51
2022/12/19 07:59:57;;;;;;;59.90;22.13;;;;;;;-9.48;86.45;102364.53;1730475;82;25427;-50
2022/12/19 08:02:23;;;;;;;55.63;23.20;;;;;;;-9.34;86.62;102362.08;1730420;82;27534;-52
2022/12/19 08:04:51;;;;;;;54.73;22.02;;;;;;;-9.24;86.31;102365.59;1730878;82;25288;-51
2022/12/19 08:07:19;;;;;;;57.20;22.77;;;;;;;-9.12;86.29;102366.38;1730912;82;27674;-52
2022/12/19 08:09:48;;;;;;;58.52;22.70;;;;;;;-9.02;86.16;102361.19;1731089;82;25547;-53
2022/12/19 08:12:15;;;;;;;56.97;22.73;;;;;;;-8.90;86.23;102359.33;1731109;82;25435;-49
2022/12/19 08:14:44;;;;;;;60.33;24.55;;;;;;;-8.75;86.41;102356.72;1730756;82;25449;-50
2022/12/19 08:17:11;;;;;;;58.13;24.32;;;;;;;-8.51;86.42;102363.42;1730872;82;25359;-50
2022/12/19 08:19:37;;;;;;;56.20;22.48;;;;;;;-8.30;86.79;102340.53;1730820;82;27323;-50
2022/12/19 08:22:05;;;;;;;61.15;24.90;;;;;;;-8.01;86.13;102341.58;1730841;82;25565;-50
2022/12/19 08:24:34;;;;;;;59.98;24.07;;;;;;;-7.79;85.75;102339.18;1730850;82;25367;-50
2022/12/19 08:27:01;;;;;;;63.55;24.60;;;;;;;-7.46;86.47;102332.66;1730816;82;27513;-48
2022/12/19 08:29:27;;;;;;;62.62;23.75;;;;;;;-7.15;85.23;102335.95;1730838;82;25469;-49
2022/12/19 08:31:54;;;;;;;58.00;25.65;;;;;;;-6.89;85.05;102324.80;1730753;82;27373;-49
2022/12/19 08:34:20;;;;;;;61.77;23.65;;;;;;;-6.72;83.06;102320.59;1730465;82;25616;-50
2022/12/19 08:36:46;;;;;;;59.63;24.32;;;;;;;-6.54;83.94;102323.77;1730859;82;25626;-50
2022/12/19 08:39:12;;;;;;;61.13;25.27;;;;;;;-6.14;85.02;102316.82;1730825;82;25403;-49
2022/12/19 08:41:38;;;;;;;56.42;24.92;;;;;;;-5.82;84.02;102322.05;1730908;82;25574;-53
2022/12/19 08:44:04;;;;;;;63.02;24.98;;;;;;;-5.51;83.85;102313.75;1730872;82;26825;-51
2022/12/19 08:46:31;;;;;;;61.10;25.80;;;;;;;-5.34;82.58;102307.61;1730752;82;25367;-50
2022/12/19 08:49:00;;;;;;;62.73;27.75;;;;;;;-5.10;82.35;102295.56;1731013;82;25523;-52
2022/12/19 08:51:26;;;;;;;64.75;27.30;;;;;;;-4.85;81.41;102291.25;1730949;82;25687;-50
2022/12/19 08:53:53;;;;;;;64.92;27.80;;;;;;;-4.67;79.83;102292.97;1730908;82;25407;-53
2022/12/19 08:56:21;;;;;;;57.58;25.72;;;;;;;-4.66;78.91;102284.08;1730906;82;27900;-51
2022/12/19 08:58:51;;;;;;;61.95;27.10;;;;;;;-4.49;79.04;102276.53;1729438;81;25376;-52
2022/12/19 09:01:22;;;;;;;58.83;26.23;;;;;;;-4.14;77.55;102273.30;1728583;83;25565;-48
2022/12/19 09:03:55;;;;;;;56.05;25.45;;;;;;;-3.82;80.84;102277.80;1728532;83;26027;-50
2022/12/19 09:06:22;;;;;;;58.40;25.00;;;;;;;-3.24;80.94;102277.77;1728438;82;25430;-50
2022/12/19 09:08:52;;;;;;;58.65;26.40;;;;;;;-2.95;79.29;102267.92;1728526;83;27385;-53
2022/12/19 09:11:20;;;;;;;60.28;25.75;;;;;;;-2.84;77.74;102274.19;1728527;83;25465;-50
2022/12/19 09:13:50;;;;;;;57.95;25.40;;;;;;;-2.63;76.44;102265.65;1728545;82;25583;-51
2022/12/19 09:16:26;;;;;;;57.35;27.27;;;;;;;-2.48;75.46;102264.42;1728516;83;26363;-49
2022/12/19 09:18:59;;;;;;;53.55;24.90;;;;;;;-2.30;75.38;102262.00;1728547;83;25568;-50
2022/12/19 09:21:29;;;;;;;64.90;28.65;;;;;;;-2.12;75.12;102252.45;1728571;83;27494;-50
2022/12/19 09:24:01;;;;;;;54.00;25.68;;;;;;;-2.12;74.71;102251.95;1728400;83;25583;-50
2022/12/19 09:26:28;;;;;;;60.60;26.23;;;;;;;-2.10;73.14;102250.45;1728515;83;25681;-54
2022/12/19 09:28:56;;;;;;;52.05;24.70;;;;;;;-1.97;73.66;102247.22;1728511;83;25698;-49
2022/12/19 09:31:26;;;;;;;52.58;26.10;;;;;;;-1.62;71.31;102232.98;1728516;83;25528;-51
2022/12/19 09:33:56;;;;;;;51.58;24.55;;;;;;;-1.43;70.88;102234.29;1728525;83;28722;-50
2022/12/19 09:36:26;;;;;;;53.70;25.25;;;;;;;-1.36;72.44;102225.44;1728521;83;25657;-53
2022/12/19 09:39:00;;;;;;;53.70;23.70;;;;;;;-1.08;72.22;102227.45;1728496;83;25603;-52
2022/12/19 09:42:16;;;;;;;51.68;24.45;;;;;;;-1.08;68.20;102226.11;1728365;82;25625;-50
2022/12/19 09:44:58;;;;;;;50.08;24.23;;;;;;;-1.01;70.35;102220.89;1728713;83;25558;-51
2022/12/19 09:47:30;;;;;;;47.70;24.52;;;;;;;-0.97;69.01;102219.02;1728562;82;27321;-54
2022/12/19 09:50:00;;;;;;;54.27;25.05;;;;;;;-0.89;69.62;102222.06;1728412;83;25610;-52
2022/12/19 09:52:40;;;;;;;47.05;22.17;;;;;;;-0.69;69.44;102220.98;1728485;83;25583;-50
2022/12/19 09:55:21;;;;;;;;;;;;;;;-0.42;69.78;102210.14;1731020;83;26309;-52
2022/12/19 09:58:32;;;;;;;49.77;23.83;;;;;;;-0.22;68.69;102202.89;1729627;82;25599;-48
2022/12/19 10:01:06;;;;;;;48.17;23.57;;;;;;;0.09;66.52;102193.23;1734528;82;28518;-51
2022/12/19 10:03:45;;;;;;;50.35;25.88;;;;;;;0.15;63.89;102187.64;1735952;82;25603;-49
2022/12/19 10:06:19;;;;;;;50.78;25.88;;;;;;;0.48;68.02;102173.76;1736143;82;25394;-50
2022/12/19 10:08:51;;;;;;;46.83;25.05;;;;;;;1.28;67.89;102173.61;1736059;82;25641;-51
2022/12/19 10:11:47;;;;;;;52.50;26.00;;;;;;;1.70;66.83;102166.81;1736716;82;25625;-50
2022/12/19 10:14:29;;;;;;;51.50;24.00;;;;;;;1.76;62.89;102149.19;1735746;82;27330;-53
2022/12/19 10:17:24;;;;;;;53.15;24.20;;;;;;;1.51;62.73;102142.28;1735696;82;25722;-49
2022/12/19 10:20:11;;;;;;;53.52;25.77;;;;;;;1.61;64.11;102128.84;1732824;82;25850;-53
2022/12/19 10:23:06;;;;;;;42.80;22.90;;;;;;;1.89;63.59;102123.00;1735991;82;26052;-52
2022/12/19 10:25:57;;;;;;;47.50;23.98;;;;;;;2.09;62.95;102113.65;1708380;83;25729;-50
2022/12/19 10:28:53;;;;;;;49.83;25.00;;;;;;;1.82;59.67;102126.51;1708633;84;25793;-50
2022/12/19 10:31:37;;;;;;;45.63;22.75;;;;;;;1.66;60.45;102099.70;1707670;84;25763;-50
2022/12/19 10:37:18;;;;;;;46.35;22.98;;;;;;;1.65;58.65;102079.89;1672473;80;25596;-51
2022/12/19 10:40:06;;;;;;;49.03;23.75;;;;;;;2.11;60.06;102075.05;1663369;86;25599;-54
2022/12/19 10:43:14;;;;;;;46.35;24.43;;;;;;;2.87;61.22;102072.72;1578254;91;27358;-49
2022/12/19 10:45:48;;;;;;;48.05;22.77;;;;;;;3.11;56.94;102068.47;1576600;91;25736;-52
2022/12/19 10:48:26;;;;;;;46.88;23.20;;;;;;;3.48;57.19;102071.30;1578260;89;25263;-50
2022/12/19 10:50:59;;;;;;;47.00;22.62;;;;;;;3.51;56.35;102074.89;1535416;92;25753;-49
2022/12/19 10:53:33;;;;;;;43.42;22.85;;;;;;;3.36;57.13;102069.31;1554735;92;25813;-51
2022/12/19 10:56:16;;;;;;;46.75;22.75;;;;;;;3.60;59.01;102061.52;1534555;92;27486;-53
2022/12/19 10:58:57;;;;;;;44.23;23.25;;;;;;;3.79;58.55;102061.58;1554911;92;25530;-53
2022/12/19 11:01:33;;;;;;;47.73;24.12;;;;;;;3.96;58.14;102050.59;1553465;92;25387;-51
2022/12/19 11:04:35;;;;;;;47.45;25.00;;;;;;;3.85;57.51;102052.15;1531624;92;25872;-52
2022/12/19 11:07:17;;;;;;;45.38;23.02;;;;;;;3.91;58.04;102041.06;1551098;92;25575;-52
2022/12/19 11:09:51;;;;;;;43.40;23.85;;;;;;;4.06;56.88;102043.39;1541778;92;28139;-53
2022/12/19 11:12:18;;;;;;;46.90;23.52;;;;;;;4.03;56.39;102039.28;1565236;91;25715;-50
2022/12/19 11:14:56;;;;;;;48.33;23.55;;;;;;;3.96;55.04;102037.73;1556769;92;25523;-52
2022/12/19 11:17:37;;;;;;;46.58;22.87;;;;;;;3.79;53.45;102030.80;1551794;87;26590;-53
2022/12/19 11:20:21;;;;;;;44.33;22.02;;;;;;;3.47;53.56;102033.01;1664337;85;25685;-51
2022/12/19 11:23:03;;;;;;;42.70;22.80;;;;;;;2.95;52.06;102029.17;1620548;88;28380;-52
2022/12/19 11:25:40;;;;;;;45.85;22.70;;;;;;;2.89;54.77;102027.36;1629982;88;25510;-50
2022/12/19 11:28:37;;;;;;;46.10;23.35;;;;;;;3.08;56.74;102018.09;1637625;86;25520;-53
2022/12/19 11:31:11;;;;;;;39.55;19.87;;;;;;;3.42;57.31;102025.34;1649433;86;26067;-49
2022/12/19 11:33:37;;;;;;;44.08;22.52;;;;;;;3.35;55.21;102016.03;1642615;86;25802;-49
2022/12/19 11:36:11;;;;;;;40.50;20.85;;;;;;;3.06;55.35;102019.64;1619872;87;27356;-54
2022/12/19 11:38:53;;;;;;;33.33;17.70;;;;;;;3.03;54.68;102013.91;1618899;87;25657;-49
2022/12/19 11:41:33;;;;;;;33.02;17.12;;;;;;;2.73;53.75;102026.54;1641847;87;25815;-50
2022/12/19 11:44:26;;;;;;;32.40;17.00;;;;;;;2.35;51.74;102032.65;1639949;87;26722;-53